Time;durP1;ratioP1;P1;durP2;ratioP2;P2;SDS_P1;SDS_P2;PMS_P1;PMS_P2;Temp;Humidity;BMP_temperature;BMP_pressure;BME280_temperature;BME280_humidity;BME280_pressure;Samples;Min_cycle;Max_cycle;Signal;HPM_P1;HPM_P2
2021/04/05 00:02:13;;;;;;;22.00;11.40;;;5.10;99.90;;;;;;5014253;28;20285;-75
2021/04/05 00:04:39;;;;;;;15.30;10.13;;;5.10;99.90;;;;;;5014392;28;20244;-74
2021/04/05 00:07:04;;;;;;;18.13;11.73;;;5.10;99.90;;;;;;5015557;28;20224;-74
2021/04/05 00:09:31;;;;;;;21.03;11.73;;;5.10;99.90;;;;;;5014320;28;20205;-74
2021/04/05 00:11:58;;;;;;;19.80;13.00;;;5.10;99.90;;;;;;5016070;28;20177;-74
2021/04/05 00:14:24;;;;;;;16.77;11.40;;;5.10;99.90;;;;;;5010676;28;20439;-74
2021/04/05 00:16:49;;;;;;;24.07;12.93;;;5.20;99.90;;;;;;5008889;28;20455;-74
2021/04/05 00:19:15;;;;;;;29.10;13.00;;;5.10;99.90;;;;;;5007351;28;20187;-74
2021/04/05 00:21:41;;;;;;;27.13;14.30;;;5.10;99.90;;;;;;5012796;28;20186;-74
2021/04/05 00:24:07;;;;;;;23.50;13.57;;;5.10;99.90;;;;;;5010872;28;20182;-73
2021/04/05 00:26:33;;;;;;;28.03;13.10;;;5.10;99.90;;;;;;5014788;28;20524;-75
2021/04/05 00:28:58;;;;;;;22.20;14.03;;;5.10;99.90;;;;;;5012445;28;20460;-75
2021/04/05 00:31:24;;;;;;;25.93;13.40;;;5.10;99.90;;;;;;5012799;28;20268;-74
2021/04/05 00:33:49;;;;;;;19.97;14.63;;;5.10;99.90;;;;;;5014063;28;20611;-74
2021/04/05 00:36:15;;;;;;;23.07;13.60;;;5.20;99.90;;;;;;5009771;28;20186;-74
2021/04/05 00:38:41;;;;;;;26.63;15.10;;;5.20;99.90;;;;;;5016062;28;20240;-74
2021/04/05 00:41:13;;;;;;;29.10;13.90;;;5.10;99.90;;;;;;5011317;28;20181;-74
2021/04/05 00:43:40;;;;;;;24.47;14.00;;;5.10;99.90;;;;;;5013034;28;20631;-74
2021/04/05 00:46:07;;;;;;;24.63;13.53;;;5.10;99.90;;;;;;5013397;28;20436;-74
2021/04/05 00:48:34;;;;;;;23.47;14.67;;;5.10;99.90;;;;;;5013377;28;20453;-74
2021/04/05 00:51:09;;;;;;;22.57;13.70;;;5.20;99.90;;;;;;5013099;28;20497;-74
2021/04/05 00:53:38;;;;;;;28.00;15.83;;;5.10;99.90;;;;;;5013746;28;20526;-74
2021/04/05 00:56:04;;;;;;;22.40;13.63;;;5.10;99.90;;;;;;5010352;28;20507;-74
2021/04/05 00:58:30;;;;;;;24.93;14.07;;;5.20;99.90;;;;;;5011797;28;20441;-74
2021/04/05 01:01:01;;;;;;;21.40;13.77;;;5.30;99.90;;;;;;5011947;28;20436;-74
2021/04/05 01:03:29;;;;;;;27.23;13.87;;;5.20;99.90;;;;;;5011589;28;20452;-74
2021/04/05 01:05:59;;;;;;;29.40;13.70;;;5.20;99.90;;;;;;5004886;28;21555;-74
2021/04/05 01:08:24;;;;;;;29.20;14.17;;;5.30;99.90;;;;;;5014183;28;20471;-74
2021/04/05 01:10:51;;;;;;;26.10;13.70;;;5.30;99.90;;;;;;5014132;28;20432;-74
2021/04/05 01:13:18;;;;;;;23.67;13.53;;;5.40;99.90;;;;;;5014286;28;20236;-74
2021/04/05 01:15:44;;;;;;;26.63;14.87;;;5.30;99.90;;;;;;5012786;28;20436;-74
2021/04/05 01:18:12;;;;;;;29.10;14.77;;;5.40;99.90;;;;;;5011563;28;20500;-74
2021/04/05 01:20:38;;;;;;;30.90;15.60;;;5.40;99.90;;;;;;4997846;28;20562;-74
2021/04/05 01:23:04;;;;;;;25.13;14.03;;;5.40;99.90;;;;;;5013130;28;20555;-74
2021/04/05 01:25:30;;;;;;;27.03;14.30;;;5.40;99.90;;;;;;5011170;28;20246;-74
2021/04/05 01:27:57;;;;;;;25.60;12.87;;;5.40;99.90;;;;;;5012977;28;20996;-74
2021/04/05 01:30:49;;;;;;;24.10;13.40;;;5.50;99.90;;;;;;5013624;28;20455;-74
2021/04/05 01:33:14;;;;;;;27.07;14.60;;;5.50;99.90;;;;;;5003167;28;20452;-74
2021/04/05 01:35:49;;;;;;;25.23;13.07;;;5.50;99.90;;;;;;5012644;28;20899;-74
2021/04/05 01:38:18;;;;;;;21.57;12.60;;;5.50;99.90;;;;;;5012921;28;20181;-74
2021/04/05 01:40:47;;;;;;;24.20;12.00;;;5.50;99.90;;;;;;5013971;28;20479;-74
2021/04/05 01:43:13;;;;;;;16.77;10.80;;;5.50;99.90;;;;;;5014851;28;20429;-74
2021/04/05 01:45:40;;;;;;;19.00;12.10;;;5.50;99.90;;;;;;5011418;28;20425;-74
2021/04/05 01:48:07;;;;;;;20.20;11.07;;;5.50;99.90;;;;;;5013500;28;20452;-74
2021/04/05 01:50:33;;;;;;;22.93;12.20;;;5.50;99.90;;;;;;5011831;28;20505;-74
2021/04/05 01:53:04;;;;;;;20.77;13.00;;;5.50;99.90;;;;;;5014194;28;20812;-74
2021/04/05 01:55:33;;;;;;;24.27;12.83;;;5.60;99.90;;;;;;5015301;28;20430;-74
2021/04/05 01:58:00;;;;;;;18.70;12.00;;;5.60;99.90;;;;;;5013148;28;20775;-74
2021/04/05 02:00:29;;;;;;;23.03;12.90;;;5.60;99.90;;;;;;5012412;28;20445;-74
2021/04/05 02:02:56;;;;;;;20.17;10.83;;;5.60;99.90;;;;;;5018114;28;20425;-74
2021/04/05 02:05:25;;;;;;;21.87;12.23;;;5.70;99.90;;;;;;5016877;28;20456;-74
2021/04/05 02:07:52;;;;;;;20.80;11.90;;;5.70;99.90;;;;;;5018484;28;20436;-74
2021/04/05 02:10:23;;;;;;;17.13;10.53;;;5.70;99.90;;;;;;5018291;28;20476;-74
2021/04/05 02:12:50;;;;;;;19.20;10.10;;;5.70;99.90;;;;;;5018228;28;20436;-74
2021/04/05 02:15:17;;;;;;;17.33;11.60;;;5.80;99.90;;;;;;5014388;28;20448;-74
2021/04/05 02:17:46;;;;;;;21.80;11.10;;;5.70;99.90;;;;;;5017464;28;20837;-74
2021/04/05 02:20:15;;;;;;;18.03;11.73;;;5.70;99.90;;;;;;5018853;28;20437;-74
2021/04/05 02:22:46;;;;;;;21.20;11.60;;;5.80;99.90;;;;;;5018316;28;20436;-74
2021/04/05 02:25:17;;;;;;;19.60;11.47;;;5.70;99.90;;;;;;5015475;28;20437;-74
2021/04/05 02:27:48;;;;;;;21.00;11.90;;;5.70;99.90;;;;;;5018012;28;20445;-74
2021/04/05 02:30:22;;;;;;;17.07;10.70;;;5.70;99.90;;;;;;5018558;28;20930;-74
2021/04/05 02:33:02;;;;;;;21.47;10.90;;;5.70;99.90;;;;;;5012164;28;21695;-74
2021/04/05 02:35:33;;;;;;;24.17;11.33;;;5.70;99.90;;;;;;5015950;28;20452;-74
2021/04/05 02:38:01;;;;;;;19.13;11.07;;;5.80;99.90;;;;;;5013366;28;20556;-74
2021/04/05 02:40:28;;;;;;;19.70;11.43;;;5.80;99.90;;;;;;5010357;28;20442;-74
2021/04/05 02:42:55;;;;;;;23.20;11.13;;;5.80;99.90;;;;;;5016332;28;20517;-74
2021/04/05 02:45:24;;;;;;;19.00;11.87;;;5.80;99.90;;;;;;5010792;28;20437;-74
2021/04/05 02:47:53;;;;;;;20.53;9.77;;;5.80;99.90;;;;;;5014510;28;20441;-74
2021/04/05 02:50:21;;;;;;;16.43;10.53;;;5.80;99.90;;;;;;5014406;28;20425;-74
2021/04/05 02:52:48;;;;;;;17.87;11.17;;;5.80;99.90;;;;;;5017030;28;20437;-75
2021/04/05 02:55:15;;;;;;;26.20;11.00;;;5.90;99.90;;;;;;5012899;28;20483;-74
2021/04/05 02:57:43;;;;;;;19.93;11.20;;;5.90;99.90;;;;;;5016047;28;20449;-74
2021/04/05 03:00:10;;;;;;;21.70;11.20;;;5.90;99.90;;;;;;5013651;28;20491;-74
2021/04/05 03:02:38;;;;;;;17.63;10.90;;;5.90;99.90;;;;;;5015571;28;20440;-74
2021/04/05 03:05:08;;;;;;;19.00;10.17;;;5.90;99.90;;;;;;5015902;28;20818;-74
2021/04/05 03:07:35;;;;;;;21.63;10.73;;;5.90;99.90;;;;;;5016217;28;20843;-74
2021/04/05 03:10:05;;;;;;;23.70;12.07;;;5.90;99.90;;;;;;5013699;28;20472;-74
2021/04/05 03:12:32;;;;;;;18.27;11.23;;;5.90;99.90;;;;;;5015514;28;20444;-74
2021/04/05 03:14:59;;;;;;;20.50;10.90;;;6.00;99.90;;;;;;4998851;28;20442;-74
2021/04/05 03:17:27;;;;;;;19.17;12.33;;;6.00;99.90;;;;;;5015824;28;21022;-74
2021/04/05 03:19:54;;;;;;;19.33;11.63;;;5.90;99.90;;;;;;5015790;28;20455;-74
2021/04/05 03:22:21;;;;;;;24.70;12.77;;;5.90;99.90;;;;;;5013008;28;20475;-74
2021/04/05 03:24:47;;;;;;;23.50;12.90;;;5.90;99.90;;;;;;5015277;28;20433;-74
2021/04/05 03:27:13;;;;;;;20.53;11.70;;;6.00;99.90;;;;;;5013683;28;20448;-74
2021/04/05 03:29:40;;;;;;;20.17;13.00;;;5.90;99.90;;;;;;5012421;28;20371;-74
2021/04/05 03:32:07;;;;;;;21.73;11.70;;;5.90;99.90;;;;;;5008708;28;20441;-74
2021/04/05 03:34:35;;;;;;;18.40;10.77;;;5.90;99.90;;;;;;5015667;28;20526;-75
2021/04/05 03:37:06;;;;;;;27.63;12.53;;;5.90;99.90;;;;;;5014835;28;20544;-74
2021/04/05 03:39:31;;;;;;;22.43;13.07;;;5.90;99.90;;;;;;5014881;28;20437;-74
2021/04/05 03:42:14;;;;;;;25.37;12.90;;;5.90;99.90;;;;;;5016831;28;20986;-74
2021/04/05 03:44:46;;;;;;;24.07;14.87;;;5.80;99.90;;;;;;5016603;28;20186;-74
2021/04/05 03:47:40;;;;;;;20.10;10.50;;;5.80;99.90;;;;;;5012384;28;20648;-74
2021/04/05 03:50:17;;;;;;;26.83;13.20;;;5.80;99.90;;;;;;5010209;28;20480;-73
2021/04/05 03:53:10;;;;;;;24.73;12.77;;;5.70;99.90;;;;;;5015808;28;20985;-72
2021/04/05 03:55:40;;;;;;;27.73;14.97;;;5.70;99.90;;;;;;5011435;28;21068;-73
2021/04/05 03:58:08;;;;;;;18.30;12.77;;;5.60;99.90;;;;;;5014401;28;20433;-73
2021/04/05 04:00:36;;;;;;;26.17;15.10;;;5.60;99.90;;;;;;5011319;28;20496;-73
2021/04/05 04:03:03;;;;;;;29.37;15.27;;;5.60;99.90;;;;;;5006746;28;20500;-73
2021/04/05 04:08:18;;;;;;;37.33;17.63;;;5.50;99.90;;;;;;5013419;28;20446;-74
2021/04/05 04:10:49;;;;;;;22.80;14.60;;;5.60;99.90;;;;;;5012563;28;20432;-73
2021/04/05 04:13:16;;;;;;;31.20;16.33;;;5.60;99.90;;;;;;5013235;28;20433;-73
2021/04/05 04:15:42;;;;;;;35.53;16.30;;;5.60;99.90;;;;;;5013071;28;20537;-73
2021/04/05 04:18:09;;;;;;;24.43;15.67;;;5.50;99.90;;;;;;5013485;28;20519;-74
2021/04/05 04:20:35;;;;;;;30.40;18.27;;;5.60;99.90;;;;;;5015887;28;20429;-73
2021/04/05 04:23:02;;;;;;;30.93;16.60;;;5.50;99.90;;;;;;5011671;28;20782;-73
2021/04/05 04:25:27;;;;;;;25.43;14.67;;;5.50;99.90;;;;;;5012985;28;20460;-73
2021/04/05 04:27:53;;;;;;;31.87;16.27;;;5.60;99.90;;;;;;4995875;28;20445;-73
2021/04/05 04:30:31;;;;;;;31.37;16.30;;;5.60;99.90;;;;;;5012543;28;20179;-73
2021/04/05 04:32:59;;;;;;;27.60;15.37;;;5.50;99.90;;;;;;5013413;28;20193;-73
2021/04/05 04:35:25;;;;;;;25.87;14.97;;;5.60;99.90;;;;;;5013683;28;20437;-73
2021/04/05 04:37:52;;;;;;;27.27;14.87;;;5.60;99.90;;;;;;5015525;28;20516;-73
2021/04/05 04:40:24;;;;;;;32.07;15.30;;;5.60;99.90;;;;;;5008679;28;20433;-73
2021/04/05 04:42:50;;;;;;;21.50;13.40;;;5.70;99.90;;;;;;5012666;28;21082;-73
2021/04/05 04:45:17;;;;;;;9.80;6.10;;;5.60;99.90;;;;;;5009888;28;20521;-73
2021/04/05 04:47:43;;;;;;;4.40;4.00;;;5.20;99.90;;;;;;5011852;28;20425;-73
2021/04/05 04:50:09;;;;;;;5.10;2.90;;;4.90;99.90;;;;;;5010758;28;20480;-74
2021/04/05 04:52:35;;;;;;;3.43;2.60;;;4.70;99.90;;;;;;5012939;28;20175;-74
2021/04/05 04:55:01;;;;;;;1.63;1.53;;;4.60;99.90;;;;;;5010273;28;20493;-74
2021/04/05 04:57:26;;;;;;;1.93;1.40;;;4.50;99.90;;;;;;4991310;28;20229;-74
2021/04/05 04:59:53;;;;;;;1.63;1.10;;;4.40;99.90;;;;;;5012226;28;20178;-74
2021/04/05 05:02:19;;;;;;;1.33;1.23;;;4.40;99.90;;;;;;5011016;28;20557;-74
2021/04/05 05:04:48;;;;;;;2.77;0.93;;;4.40;99.90;;;;;;4995455;28;20439;-74
2021/04/05 05:07:15;;;;;;;0.93;0.93;;;4.40;99.90;;;;;;5009248;28;20271;-74
2021/04/05 05:09:41;;;;;;;0.70;0.70;;;4.40;99.90;;;;;;5007907;28;20468;-74
2021/04/05 05:12:07;;;;;;;0.70;0.63;;;4.30;99.90;;;;;;5007451;28;20458;-74
2021/04/05 05:14:33;;;;;;;0.70;0.70;;;4.30;99.90;;;;;;4994739;28;20476;-73
2021/04/05 05:16:59;;;;;;;1.10;0.80;;;4.30;99.90;;;;;;5012343;28;20443;-74
2021/04/05 05:19:26;;;;;;;0.80;0.80;;;4.20;99.90;;;;;;5010522;28;20269;-74
2021/04/05 05:22:00;;;;;;;1.67;0.70;;;4.20;99.90;;;;;;5005462;28;20490;-73
2021/04/05 05:24:30;;;;;;;0.60;0.60;;;4.20;99.90;;;;;;5009223;28;20560;-73
2021/04/05 05:26:56;;;;;;;0.80;0.70;;;4.20;99.90;;;;;;5006980;28;20429;-73
2021/04/05 05:29:23;;;;;;;0.70;0.70;;;4.10;99.90;;;;;;5003699;28;20472;-73
2021/04/05 05:31:49;;;;;;;5.60;1.10;;;4.10;99.90;;;;;;5014328;28;20445;-74
2021/04/05 05:34:18;;;;;;;1.47;1.13;;;4.20;99.90;;;;;;5015022;28;20746;-73
2021/04/05 05:36:45;;;;;;;0.90;0.90;;;4.20;99.90;;;;;;5015417;28;20447;-74
2021/04/05 05:39:12;;;;;;;1.13;1.07;;;4.20;99.90;;;;;;5014967;28;20815;-74
2021/04/05 05:41:43;;;;;;;1.67;1.00;;;4.20;99.90;;;;;;5016314;28;20444;-74
2021/04/05 05:44:24;;;;;;;0.90;0.70;;;4.30;99.90;;;;;;4989027;28;20777;-73
2021/04/05 05:46:56;;;;;;;1.00;0.90;;;4.30;99.90;;;;;;5010560;28;20433;-75
2021/04/05 05:49:35;;;;;;;2.73;0.90;;;4.40;99.90;;;;;;5014863;28;20525;-74
2021/04/05 05:52:20;;;;;;;2.20;1.00;;;4.30;99.90;;;;;;5012355;28;20534;-74
2021/04/05 05:55:24;;;;;;;0.90;0.90;;;4.40;99.90;;;;;;5016625;28;20427;-74
2021/04/05 05:58:02;;;;;;;2.43;1.40;;;4.40;99.90;;;;;;4990886;28;20479;-74
2021/04/05 06:00:34;;;;;;;3.50;1.53;;;4.50;99.90;;;;;;4988061;28;20509;-74
2021/04/05 06:03:02;;;;;;;5.73;1.17;;;4.50;99.90;;;;;;5015566;28;20512;-74
2021/04/05 06:05:42;;;;;;;1.20;1.10;;;4.50;99.90;;;;;;4989778;28;20759;-75
2021/04/05 06:08:25;;;;;;;3.13;1.40;;;4.40;99.90;;;;;;5006712;28;20650;-74
2021/04/05 06:11:12;;;;;;;4.10;1.20;;;4.40;99.90;;;;;;5008708;28;20557;-75
2021/04/05 06:14:01;;;;;;;4.20;2.13;;;4.40;99.90;;;;;;5007904;28;20924;-74
2021/04/05 06:16:37;;;;;;;2.20;0.97;;;4.30;99.90;;;;;;5005118;28;20445;-74
2021/04/05 06:19:19;;;;;;;2.03;1.40;;;4.20;99.90;;;;;;5008861;28;21116;-75
2021/04/05 06:22:06;;;;;;;5.97;1.70;;;4.10;99.90;;;;;;5013205;28;20440;-74
2021/04/05 06:24:45;;;;;;;4.53;1.57;;;4.00;99.90;;;;;;5010066;28;20535;-75
2021/04/05 06:27:18;;;;;;;5.77;1.40;;;3.90;99.90;;;;;;5012124;28;20436;-75
2021/04/05 06:30:25;;;;;;;2.60;1.23;;;3.90;99.90;;;;;;5005708;28;20450;-74
2021/04/05 06:33:20;;;;;;;4.40;1.50;;;3.90;99.90;;;;;;5006523;28;20435;-75
2021/04/05 06:36:11;;;;;;;6.20;1.60;;;3.90;99.90;;;;;;5009042;28;20827;-75
2021/04/05 06:39:14;;;;;;;3.93;1.13;;;3.80;99.90;;;;;;4990811;28;20835;-75
2021/04/05 06:41:46;;;;;;;1.83;1.70;;;3.80;99.90;;;;;;5008634;28;20431;-75
2021/04/05 06:44:49;;;;;;;4.33;1.30;;;3.80;99.90;;;;;;5012686;28;20458;-75
2021/04/05 06:47:52;;;;;;;2.00;1.33;;;3.70;99.90;;;;;;5012037;28;20436;-75
2021/04/05 06:50:42;;;;;;;3.50;0.97;;;3.70;99.90;;;;;;5015607;28;20453;-76
2021/04/05 06:53:16;;;;;;;3.53;1.53;;;3.70;99.90;;;;;;5015406;28;20438;-74
2021/04/05 06:55:49;;;;;;;3.43;1.60;;;3.70;99.90;;;;;;5006700;28;20421;-74
2021/04/05 06:58:43;;;;;;;4.60;1.10;;;3.70;99.90;;;;;;5000173;28;20448;-75
2021/04/05 07:01:08;;;;;;;5.43;2.27;;;3.80;99.90;;;;;;5015139;28;20570;-74
2021/04/05 07:04:05;;;;;;;7.00;2.00;;;3.90;99.90;;;;;;4995535;28;20522;-75
2021/04/05 07:06:50;;;;;;;2.60;1.80;;;3.90;99.90;;;;;;5016891;28;20332;-75
2021/04/05 07:09:25;;;;;;;2.00;1.80;;;3.90;99.90;;;;;;5013835;28;20525;-75
2021/04/05 07:12:05;;;;;;;8.00;1.67;;;3.90;99.90;;;;;;5014199;28;20446;-74
2021/04/05 07:14:45;;;;;;;2.10;1.20;;;3.80;99.90;;;;;;5015392;28;20915;-74
2021/04/05 07:17:44;;;;;;;4.33;1.27;;;3.80;99.90;;;;;;4993838;28;20441;-74
2021/04/05 07:20:15;;;;;;;2.10;1.20;;;3.90;99.90;;;;;;5016352;28;21040;-75
2021/04/05 07:23:10;;;;;;;2.57;1.50;;;3.90;99.90;;;;;;5016939;28;20448;-75
2021/04/05 07:25:44;;;;;;;8.37;1.83;;;4.00;99.90;;;;;;5015851;28;20438;-74
2021/04/05 07:28:17;;;;;;;3.13;1.37;;;4.00;99.90;;;;;;5009023;28;20446;-75
2021/04/05 07:31:17;;;;;;;5.00;1.40;;;4.10;99.90;;;;;;5018048;28;20443;-75
2021/04/05 07:33:45;;;;;;;5.33;2.47;;;4.00;99.90;;;;;;5012583;28;21236;-75
2021/04/05 07:36:25;;;;;;;8.47;1.37;;;3.90;99.90;;;;;;5018189;28;20940;-75
2021/04/05 07:39:09;;;;;;;7.53;2.30;;;3.90;99.90;;;;;;4999233;28;20498;-75
2021/04/05 07:42:08;;;;;;;1.47;1.30;;;4.00;99.90;;;;;;5018754;28;20433;-76
2021/04/05 07:45:13;;;;;;;5.17;1.70;;;4.10;99.90;;;;;;5015218;28;20518;-75
2021/04/05 07:48:13;;;;;;;4.87;1.30;;;4.10;99.90;;;;;;5017826;28;20451;-75
2021/04/05 07:50:50;;;;;;;9.43;1.57;;;4.10;99.90;;;;;;5007413;28;20435;-75
2021/04/05 07:53:35;;;;;;;6.93;1.30;;;4.00;99.90;;;;;;5017271;28;20933;-75
2021/04/05 07:56:18;;;;;;;4.90;2.63;;;4.00;99.90;;;;;;5016632;28;20769;-75
2021/04/05 07:59:11;;;;;;;5.43;1.23;;;4.10;99.90;;;;;;5019367;28;20438;-76
2021/04/05 08:01:36;;;;;;;11.73;2.30;;;4.20;99.90;;;;;;5017326;28;20970;-75
2021/04/05 08:04:05;;;;;;;1.83;1.03;;;4.30;99.90;;;;;;5013440;28;20517;-75
2021/04/05 08:06:38;;;;;;;2.60;1.20;;;3.90;99.90;;;;;;5012889;28;20180;-75
2021/04/05 08:09:09;;;;;;;2.20;1.10;;;3.70;99.90;;;;;;5012791;28;21163;-75
2021/04/05 08:12:14;;;;;;;2.03;1.63;;;3.60;99.90;;;;;;5012699;28;21011;-74
2021/04/05 08:15:01;;;;;;;2.00;1.90;;;3.50;99.90;;;;;;5015610;28;20444;-76
2021/04/05 08:17:54;;;;;;;4.83;1.70;;;3.60;99.90;;;;;;5018363;28;20421;-76
2021/04/05 08:20:34;;;;;;;3.10;1.90;;;3.70;99.90;;;;;;5017446;28;20785;-76
2021/04/05 08:23:22;;;;;;;2.37;0.90;;;3.90;99.90;;;;;;5017950;28;20964;-76
2021/04/05 08:26:02;;;;;;;4.10;1.90;;;4.10;99.90;;;;;;5013695;28;20520;-77
2021/04/05 08:28:39;;;;;;;5.53;1.97;;;4.30;99.90;;;;;;5017339;28;20489;-76
2021/04/05 08:31:29;;;;;;;8.17;1.20;;;4.50;99.90;;;;;;5016201;28;20433;-76
2021/04/05 08:34:34;;;;;;;1.90;1.27;;;4.60;99.90;;;;;;5012726;28;20434;-76
2021/04/05 08:36:59;;;;;;;4.93;1.33;;;4.60;99.90;;;;;;5015352;28;20425;-76
2021/04/05 08:39:35;;;;;;;1.30;1.20;;;4.50;99.90;;;;;;5016784;28;20511;-76
2021/04/05 08:42:08;;;;;;;2.10;0.93;;;4.50;99.90;;;;;;5015976;28;20169;-75
2021/04/05 08:44:44;;;;;;;3.17;0.80;;;4.00;99.90;;;;;;5016044;28;20424;-75
2021/04/05 08:47:17;;;;;;;5.27;1.97;;;3.60;99.90;;;;;;5014227;28;20466;-76
2021/04/05 08:49:46;;;;;;;1.43;0.70;;;3.40;99.90;;;;;;5012469;28;20506;-76
2021/04/05 08:52:13;;;;;;;2.93;1.00;;;3.20;99.90;;;;;;5003525;28;20468;-76
2021/04/05 08:54:41;;;;;;;1.03;0.80;;;3.30;99.90;;;;;;5009174;28;20806;-76
2021/04/05 08:57:08;;;;;;;1.70;0.80;;;3.30;99.90;;;;;;5011909;28;20418;-76
2021/04/05 08:59:50;;;;;;;1.00;0.90;;;3.20;99.90;;;;;;5004164;28;20550;-75
2021/04/05 09:02:27;;;;;;;1.33;0.90;;;3.10;99.90;;;;;;5011497;28;20992;-75
2021/04/05 09:04:54;;;;;;;7.27;0.93;;;3.00;99.90;;;;;;5008544;28;20431;-76
2021/04/05 09:07:35;;;;;;;1.23;1.00;;;2.90;99.90;;;;;;4995957;28;20436;-76
2021/04/05 09:10:06;;;;;;;5.63;1.20;;;2.80;99.90;;;;;;5016404;28;20482;-76
2021/04/05 09:12:34;;;;;;;2.30;0.90;;;2.80;99.90;;;;;;5012039;28;20461;-75
2021/04/05 09:15:28;;;;;;;3.10;1.13;;;2.50;99.90;;;;;;5011455;28;20511;-75
2021/04/05 09:18:17;;;;;;;3.20;1.20;;;2.00;99.90;;;;;;5009556;28;20904;-76
2021/04/05 09:21:02;;;;;;;1.07;0.80;;;2.10;99.90;;;;;;5010204;28;20461;-76
2021/04/05 09:23:49;;;;;;;0.83;0.83;;;2.40;99.90;;;;;;5010871;28;20430;-75
2021/04/05 09:26:47;;;;;;;1.37;1.07;;;2.50;99.90;;;;;;4997038;28;20440;-76
2021/04/05 09:29:47;;;;;;;4.00;1.27;;;2.30;99.90;;;;;;4963145;28;20475;-76
2021/04/05 09:32:37;;;;;;;3.23;1.10;;;2.60;99.90;;;;;;4969101;28;20535;-76
2021/04/05 09:35:25;;;;;;;6.33;1.50;;;2.80;99.90;;;;;;5006762;28;20769;-76
2021/04/05 09:38:04;;;;;;;6.57;1.63;;;3.10;99.90;;;;;;4993437;28;20586;-76
2021/04/05 09:40:56;;;;;;;4.07;1.00;;;3.30;99.90;;;;;;5011861;28;20431;-76
2021/04/05 09:43:40;;;;;;;5.17;1.40;;;3.50;99.90;;;;;;5014031;28;20436;-76
2021/04/05 09:46:25;;;;;;;6.80;2.40;;;3.60;99.90;;;;;;5012044;28;20431;-76
2021/04/05 09:49:02;;;;;;;3.87;2.37;;;3.50;99.90;;;;;;5012011;28;20458;-76
2021/04/05 09:51:49;;;;;;;9.87;1.70;;;3.60;99.90;;;;;;5015005;28;20935;-76
2021/04/05 09:54:40;;;;;;;2.87;1.20;;;3.80;99.90;;;;;;5011640;28;20416;-76
2021/04/05 09:57:14;;;;;;;5.13;2.40;;;3.80;99.90;;;;;;4997998;28;20455;-76
2021/04/05 09:59:44;;;;;;;5.10;2.20;;;4.00;99.90;;;;;;4998489;28;20505;-76
2021/04/05 10:02:14;;;;;;;2.93;1.93;;;4.10;99.90;;;;;;5012682;28;20671;-78
2021/04/05 10:04:43;;;;;;;5.73;1.77;;;4.20;99.90;;;;;;4994394;28;20984;-76
2021/04/05 10:07:12;;;;;;;8.07;2.00;;;4.30;99.90;;;;;;5013021;28;20980;-76
2021/04/05 10:09:40;;;;;;;9.20;1.80;;;4.30;99.90;;;;;;5013194;28;20456;-75
2021/04/05 10:12:08;;;;;;;5.40;1.93;;;4.20;99.90;;;;;;5009390;28;20445;-76
2021/04/05 10:14:39;;;;;;;3.03;1.40;;;4.10;99.90;;;;;;5014217;28;20443;-75
2021/04/05 10:17:05;;;;;;;7.30;2.00;;;3.40;99.90;;;;;;5013702;28;20419;-73
2021/04/05 10:19:40;;;;;;;7.63;1.40;;;3.00;99.90;;;;;;5014488;28;20813;-74
2021/04/05 10:22:14;;;;;;;5.13;1.63;;;2.80;99.90;;;;;;5014515;28;20441;-73
2021/04/05 10:24:45;;;;;;;6.20;1.67;;;2.70;99.90;;;;;;5014761;28;20443;-73
2021/04/05 10:27:16;;;;;;;3.37;1.37;;;2.80;99.90;;;;;;5011673;28;20438;-72
2021/04/05 10:29:44;;;;;;;2.30;1.40;;;2.90;99.90;;;;;;5013231;28;20459;-73
2021/04/05 10:32:14;;;;;;;4.77;1.73;;;3.10;99.90;;;;;;5011720;28;20454;-74
2021/04/05 10:34:44;;;;;;;5.47;2.00;;;3.20;99.90;;;;;;5014566;28;20431;-74
2021/04/05 10:37:33;;;;;;;4.60;1.53;;;3.50;99.90;;;;;;5015383;28;20445;-74
2021/04/05 10:40:00;;;;;;;5.70;1.90;;;3.90;99.90;;;;;;5015094;28;20493;-74
2021/04/05 10:42:44;;;;;;;3.63;1.47;;;4.20;99.90;;;;;;5016006;28;20849;-74
2021/04/05 10:45:26;;;;;;;15.50;1.60;;;4.50;99.90;;;;;;5009995;28;21160;-74
2021/04/05 10:48:10;;;;;;;5.20;1.80;;;4.90;99.90;;;;;;5014016;28;20528;-74
2021/04/05 10:50:45;;;;;;;3.70;1.33;;;5.20;99.90;;;;;;5017148;28;20470;-74
2021/04/05 10:53:15;;;;;;;2.70;1.30;;;5.40;99.90;;;;;;5015140;28;20486;-74
2021/04/05 10:55:46;;;;;;;2.47;1.20;;;5.20;99.90;;;;;;5011625;28;23153;-74
2021/04/05 10:58:17;;;;;;;4.43;1.37;;;5.00;99.90;;;;;;5011870;28;20416;-74
2021/04/05 11:00:50;;;;;;;2.27;1.03;;;5.00;99.90;;;;;;5013288;28;20455;-74
2021/04/05 11:03:22;;;;;;;3.67;1.27;;;4.60;99.90;;;;;;5015893;28;20427;-74
2021/04/05 11:05:56;;;;;;;2.30;1.00;;;4.40;99.90;;;;;;5015200;28;20828;-74
2021/04/05 11:08:25;;;;;;;5.03;1.67;;;4.20;99.90;;;;;;4995812;28;20467;-74
2021/04/05 11:11:05;;;;;;;4.57;1.73;;;3.90;99.90;;;;;;5016393;28;20439;-74
2021/04/05 11:13:36;;;;;;;6.27;1.47;;;3.80;99.90;;;;;;5011205;28;20428;-74
2021/04/05 11:16:17;;;;;;;4.63;1.47;;;3.90;99.90;;;;;;4993738;28;20523;-75
2021/04/05 11:19:05;;;;;;;6.20;1.50;;;3.90;99.90;;;;;;5016902;28;20458;-73
2021/04/05 11:21:36;;;;;;;7.57;1.67;;;4.20;99.90;;;;;;5016740;28;20436;-75
2021/04/05 11:24:03;;;;;;;4.17;1.70;;;4.50;99.90;;;;;;5014728;28;20523;-73
2021/04/05 11:26:35;;;;;;;4.13;1.10;;;5.00;99.90;;;;;;5017048;28;20425;-74
2021/04/05 11:29:07;;;;;;;4.63;1.30;;;5.40;99.90;;;;;;5016979;28;20453;-74
2021/04/05 11:31:40;;;;;;;3.50;1.50;;;5.80;99.90;;;;;;5015683;28;20429;-74
2021/04/05 11:34:07;;;;;;;3.93;1.43;;;5.90;99.90;;;;;;5019879;28;20475;-75
2021/04/05 11:36:47;;;;;;;5.30;1.87;;;5.80;99.90;;;;;;5015404;28;20437;-75
2021/04/05 11:39:16;;;;;;;2.53;1.13;;;5.40;99.90;;;;;;5007453;28;20439;-74
2021/04/05 11:41:46;;;;;;;2.60;1.00;;;4.90;99.90;;;;;;5008637;28;20921;-74
2021/04/05 11:44:17;;;;;;;6.77;1.00;;;4.70;99.90;;;;;;5016367;28;20420;-75
2021/04/05 11:46:47;;;;;;;5.07;1.47;;;5.00;99.70;;;;;;5017489;28;20484;-74
2021/04/05 11:49:17;;;;;;;3.70;1.30;;;5.40;99.90;;;;;;5016259;28;20540;-74
2021/04/05 11:51:54;;;;;;;5.50;1.40;;;6.00;99.90;;;;;;4998387;28;20435;-74
2021/04/05 11:54:36;;;;;;;1.30;1.20;;;6.30;99.90;;;;;;5015044;28;20757;-74
2021/04/05 11:57:07;;;;;;;1.53;1.43;;;5.90;99.90;;;;;;5014875;28;20523;-73
2021/04/05 11:59:42;;;;;;;10.73;1.60;;;5.50;99.90;;;;;;5012674;28;20428;-72
2021/04/05 12:02:18;;;;;;;3.40;1.50;;;5.20;99.90;;;;;;4991199;28;20425;-77
2021/04/05 12:05:18;;;;;;;3.13;1.27;;;4.80;99.90;;;;;;5010706;28;20534;-74
2021/04/05 12:07:47;;;;;;;4.27;1.60;;;4.90;99.90;;;;;;5008556;28;20429;-76
2021/04/05 12:10:20;;;;;;;2.63;1.20;;;4.80;99.90;;;;;;5006436;28;20502;-81
2021/04/05 12:13:07;;;;;;;4.10;1.23;;;4.90;99.90;;;;;;5011791;28;20459;-80
2021/04/05 12:15:35;;;;;;;4.80;1.17;;;5.00;99.90;;;;;;5006518;28;20425;-80
2021/04/05 12:18:01;;;;;;;3.73;1.37;;;5.30;99.90;;;;;;5009873;28;20437;-80
2021/04/05 12:20:31;;;;;;;7.97;1.40;;;5.60;99.90;;;;;;5005110;28;20506;-80
2021/04/05 12:23:05;;;;;;;1.60;0.97;;;5.80;99.90;;;;;;4994444;28;20514;-80
2021/04/05 12:25:34;;;;;;;2.50;1.20;;;6.20;99.90;;;;;;5002243;28;20421;-80
2021/04/05 12:28:04;;;;;;;1.43;1.10;;;6.00;99.90;;;;;;5005260;28;20436;-80
2021/04/05 12:30:31;;;;;;;11.47;1.97;;;6.10;99.90;;;;;;5005921;28;21356;-81
2021/04/05 12:32:58;;;;;;;1.30;1.10;;;6.60;99.90;;;;;;5005899;28;20751;-80
2021/04/05 12:35:25;;;;;;;1.33;1.23;;;6.50;99.90;;;;;;5007313;28;20835;-80
2021/04/05 12:37:56;;;;;;;5.53;1.50;;;6.00;99.90;;;;;;5008648;28;20520;-80
2021/04/05 12:40:43;;;;;;;4.23;2.00;;;5.40;99.90;;;;;;5008432;28;20489;-78
2021/04/05 12:43:13;;;;;;;3.33;1.00;;;4.00;99.90;;;;;;5009522;28;20448;-78
2021/04/05 12:45:41;;;;;;;6.17;1.77;;;3.40;99.90;;;;;;4990633;28;20444;-78
2021/04/05 12:48:10;;;;;;;4.67;1.33;;;2.80;99.90;;;;;;5003560;28;20916;-78
2021/04/05 12:50:36;;;;;;;1.00;1.00;;;2.50;99.90;;;;;;5006324;28;20782;-78
2021/04/05 12:53:05;;;;;;;5.23;0.93;;;2.30;99.90;;;;;;5000640;28;20443;-78
2021/04/05 12:55:40;;;;;;;1.83;0.90;;;2.40;99.90;;;;;;5006861;28;20427;-78
2021/04/05 12:58:06;;;;;;;1.60;0.90;;;2.30;99.90;;;;;;5009398;28;20450;-79
2021/04/05 13:00:42;;;;;;;4.23;1.70;;;2.70;99.90;;;;;;5009432;28;20512;-79
2021/04/05 13:03:12;;;;;;;1.73;1.60;;;3.40;99.90;;;;;;5006255;28;20436;-80
2021/04/05 13:06:06;;;;;;;5.33;1.20;;;3.70;99.90;;;;;;5007497;28;20440;-79
2021/04/05 13:08:41;;;;;;;5.63;1.30;;;3.60;99.90;;;;;;4997153;28;20501;-79
2021/04/05 13:11:13;;;;;;;4.33;1.30;;;3.50;99.90;;;;;;5008424;28;20431;-78
2021/04/05 13:13:57;;;;;;;4.67;1.63;;;3.10;99.90;;;;;;5009120;28;20527;-79
2021/04/05 13:16:29;;;;;;;3.60;1.17;;;3.10;99.90;;;;;;5004859;28;20429;-79
2021/04/05 13:18:57;;;;;;;5.03;1.30;;;3.50;99.90;;;;;;5002676;28;20491;-79
2021/04/05 13:21:25;;;;;;;2.90;1.10;;;4.00;99.90;;;;;;5008458;28;20460;-80
2021/04/05 13:23:55;;;;;;;2.80;1.03;;;4.20;99.90;;;;;;4991650;28;20440;-79
2021/04/05 13:26:49;;;;;;;5.37;1.83;;;4.40;99.90;;;;;;4996507;28;20440;-80
2021/04/05 13:29:19;;;;;;;5.77;1.13;;;4.40;99.90;;;;;;5001957;28;20454;-79